Terminal Aerodrome Forecast
Issued by NWS

Home | Current Version | Previous Version | Text Only | Print | Product List | Glossary On
Versions: 1 2 3 4 5 6 7 8 9 10 11 12 13 14 15
000
FTUS45 KPSR 251736
TAFIWA
TAF
KIWA 251736Z 2518/2618 09009KT P6SM SKC
      TEMPO 2518/2520 07015G24KT
     FM260200 02005KT P6SM SKC
     FM260500 08005KT P6SM SCT250
      AMD LTD TO CLD VIS AND WIND 2603/2613=

USA.gov is the U.S. government's official web portal to all federal, state and local government web resources and services.